Time;durP1;ratioP1;P1;durP2;ratioP2;P2;SDS_P1;SDS_P2;PMS_P1;PMS_P2;Temp;Humidity;BMP_temperature;BMP_pressure;BME280_temperature;BME280_humidity;BME280_pressure;Samples;Min_cycle;Max_cycle;Signal;HPM_P1;HPM_P2
2022/11/01 00:00:49;;;;;;;20.23;11.18;;;14.00;99.90;;;;;;6249048;22;20012;-79
2022/11/01 00:03:15;;;;;;;20.75;11.07;;;14.00;99.90;;;;;;6249643;22;20062;-79
2022/11/01 00:05:41;;;;;;;21.27;11.05;;;14.00;99.90;;;;;;6249375;22;20016;-79
2022/11/01 00:08:06;;;;;;;22.35;10.95;;;14.00;99.90;;;;;;6248519;22;20519;-79
2022/11/01 00:10:32;;;;;;;19.55;10.20;;;14.00;99.80;;;;;;6277059;22;20012;-79
2022/11/01 00:12:57;;;;;;;17.55;10.50;;;14.00;99.70;;;;;;6248934;22;20026;-79
2022/11/01 00:15:23;;;;;;;19.30;10.45;;;14.00;99.70;;;;;;6248637;22;20011;-79
2022/11/01 00:17:48;;;;;;;18.00;9.80;;;14.00;99.70;;;;;;6276706;22;20016;-79
2022/11/01 00:20:14;;;;;;;21.10;10.05;;;14.00;99.60;;;;;;6276082;22;20020;-79
2022/11/01 00:22:40;;;;;;;18.95;10.23;;;14.00;99.50;;;;;;6248483;22;20057;-79
2022/11/01 00:25:05;;;;;;;17.77;10.10;;;14.00;99.50;;;;;;6249440;22;20157;-79
2022/11/01 00:27:31;;;;;;;20.05;10.70;;;14.00;99.60;;;;;;6276075;22;20074;-79
2022/11/01 00:29:56;;;;;;;21.45;10.20;;;14.00;99.60;;;;;;6247945;22;20031;-79
2022/11/01 00:32:22;;;;;;;19.65;10.35;;;14.00;99.60;;;;;;6248929;22;20016;-79
2022/11/01 00:34:48;;;;;;;16.63;9.77;;;14.00;99.50;;;;;;6248876;22;20098;-80
2022/11/01 00:37:14;;;;;;;20.20;10.23;;;14.00;99.60;;;;;;6275403;22;20073;-79
2022/11/01 00:39:39;;;;;;;19.35;9.55;;;14.00;99.60;;;;;;6275620;22;20082;-79
2022/11/01 00:42:06;;;;;;;21.80;10.32;;;14.00;99.60;;;;;;6276297;22;20012;-80
2022/11/01 00:44:32;;;;;;;18.55;9.93;;;14.00;99.60;;;;;;6275622;22;20034;-79
2022/11/01 00:46:57;;;;;;;17.50;9.00;;;14.00;99.60;;;;;;6248678;22;20012;-79
2022/11/01 00:49:23;;;;;;;20.25;9.88;;;14.00;99.50;;;;;;6275900;22;20027;-79
2022/11/01 00:51:48;;;;;;;20.02;9.95;;;14.00;99.40;;;;;;6248280;22;20309;-80
2022/11/01 00:54:14;;;;;;;19.83;9.88;;;14.00;99.40;;;;;;6249987;22;20030;-80
2022/11/01 00:56:40;;;;;;;19.08;10.05;;;14.00;99.40;;;;;;6277880;22;20035;-80
2022/11/01 00:59:05;;;;;;;20.10;9.43;;;14.00;99.40;;;;;;6276128;22;20340;-80
2022/11/01 01:01:31;;;;;;;17.17;8.63;;;14.00;99.30;;;;;;6277993;22;20012;-79
2022/11/01 01:03:56;;;;;;;20.42;9.25;;;14.00;99.40;;;;;;6277313;22;20455;-80
2022/11/01 01:06:22;;;;;;;17.95;9.25;;;14.00;99.30;;;;;;6249038;22;20011;-80
2022/11/01 01:08:48;;;;;;;16.10;8.35;;;14.00;99.20;;;;;;6249962;22;20071;-80
2022/11/01 01:11:14;;;;;;;16.73;8.90;;;14.10;99.20;;;;;;6249249;22;20020;-80
2022/11/01 01:13:40;;;;;;;15.40;8.50;;;14.00;99.10;;;;;;6250209;22;20058;-80
2022/11/01 01:16:10;;;;;;;18.60;9.27;;;14.00;99.00;;;;;;6249168;22;20015;-80
2022/11/01 01:18:36;;;;;;;19.30;9.00;;;14.10;99.00;;;;;;6249545;22;20027;-80
2022/11/01 01:21:03;;;;;;;16.67;9.00;;;14.10;99.10;;;;;;6276621;22;20057;-81
2022/11/01 01:23:29;;;;;;;19.13;9.52;;;14.10;99.10;;;;;;6276564;22;20439;-80
2022/11/01 01:25:55;;;;;;;18.42;8.48;;;14.10;99.10;;;;;;6248606;22;20106;-80
2022/11/01 01:28:20;;;;;;;18.48;8.50;;;14.10;99.10;;;;;;6250200;22;20018;-80
2022/11/01 01:30:46;;;;;;;19.73;8.70;;;14.10;99.20;;;;;;6276817;22;20020;-80
2022/11/01 01:33:11;;;;;;;17.90;8.63;;;14.10;99.20;;;;;;6248390;22;20515;-80
2022/11/01 01:35:38;;;;;;;18.77;8.75;;;14.20;99.20;;;;;;6276846;22;20415;-80
2022/11/01 01:38:04;;;;;;;19.00;8.43;;;14.20;99.20;;;;;;6277038;22;20047;-80
2022/11/01 01:40:31;;;;;;;17.23;8.98;;;14.20;99.30;;;;;;6249074;22;20450;-80
2022/11/01 01:42:56;;;;;;;18.30;8.65;;;14.20;99.30;;;;;;6249241;22;20090;-80
2022/11/01 01:45:37;;;;;;;17.55;8.43;;;14.20;99.30;;;;;;6277180;22;20066;-80
2022/11/01 01:48:23;;;;;;;17.05;8.32;;;14.20;99.20;;;;;;6249027;22;20020;-80
2022/11/01 01:51:15;;;;;;;18.02;8.93;;;14.20;99.30;;;;;;6276244;22;20441;-80
2022/11/01 01:53:47;;;;;;;19.63;8.25;;;14.20;99.10;;;;;;6238917;22;20015;-80
2022/11/01 01:56:39;;;;;;;17.63;8.77;;;14.20;99.30;;;;;;6250259;22;20012;-80
2022/11/01 01:59:07;;;;;;;18.83;7.88;;;14.20;99.30;;;;;;6248369;22;20050;-80
2022/11/01 02:01:36;;;;;;;18.08;7.07;;;14.20;99.30;;;;;;6276411;22;20012;-80
2022/11/01 02:04:05;;;;;;;17.08;7.57;;;14.20;99.20;;;;;;6249076;22;20103;-81
2022/11/01 02:06:32;;;;;;;16.25;7.95;;;14.20;99.20;;;;;;6249797;22;20012;-80
2022/11/01 02:09:01;;;;;;;15.88;7.80;;;14.20;99.20;;;;;;6248726;22;20012;-80
2022/11/01 02:11:27;;;;;;;14.25;7.85;;;14.20;99.20;;;;;;6277388;22;20008;-80
2022/11/01 02:13:52;;;;;;;14.57;6.63;;;14.20;99.20;;;;;;6249086;22;20466;-80
2022/11/01 02:16:24;;;;;;;17.85;7.90;;;14.20;99.20;;;;;;6248524;22;20074;-80
2022/11/01 02:19:04;;;;;;;15.75;7.78;;;14.20;99.10;;;;;;6249389;22;20398;-80
2022/11/01 02:21:50;;;;;;;18.10;7.45;;;14.30;99.20;;;;;;6248688;22;20023;-80
2022/11/01 02:24:43;;;;;;;16.15;7.65;;;14.30;99.20;;;;;;6276642;22;20392;-80
2022/11/01 02:27:13;;;;;;;;;;;14.30;99.20;;;;;;6250413;22;20016;-80
2022/11/01 02:29:57;;;;;;;16.02;7.03;;;14.20;99.20;;;;;;6248185;22;19923;-80
2022/11/01 02:32:22;;;;;;;;;;;14.20;99.40;;;;;;6250004;22;20066;-80
2022/11/01 02:35:05;;;;;;;16.05;7.10;;;14.20;99.30;;;;;;6249026;22;19919;-80
2022/11/01 02:37:58;;;;;;;13.30;7.03;;;14.20;99.50;;;;;;6248560;22;20460;-81
2022/11/01 02:40:34;;;;;;;18.23;6.93;;;14.20;99.40;;;;;;6276366;22;20050;-80
2022/11/01 02:43:09;;;;;;;15.30;7.82;;;14.20;99.50;;;;;;6248478;22;20020;-80
2022/11/01 02:45:38;;;;;;;15.30;6.72;;;14.20;99.40;;;;;;6249224;22;20054;-80
2022/11/01 02:48:06;;;;;;;17.92;7.30;;;14.20;99.50;;;;;;6249140;22;20037;-80
2022/11/01 02:50:42;;;;;;;14.82;7.18;;;14.30;99.50;;;;;;6248044;22;20082;-80
2022/11/01 02:53:08;;;;;;;10.23;6.68;;;14.20;99.40;;;;;;6249392;22;20336;-80
2022/11/01 02:55:34;;;;;;;15.77;7.40;;;14.30;99.40;;;;;;6249151;22;20071;-80
2022/11/01 02:58:20;;;;;;;16.17;6.57;;;14.30;99.40;;;;;;6275562;22;20012;-80
2022/11/01 03:00:46;;;;;;;14.43;6.97;;;14.20;99.20;;;;;;6248681;22;20448;-80
2022/11/01 03:03:26;;;;;;;13.30;6.53;;;14.30;99.40;;;;;;6248918;22;20054;-80
2022/11/01 03:06:03;;;;;;;14.02;7.15;;;14.30;99.30;;;;;;6275249;22;20110;-80
2022/11/01 03:08:42;;;;;;;14.45;6.75;;;14.30;99.30;;;;;;6276358;22;20394;-80
2022/11/01 03:11:19;;;;;;;14.10;6.47;;;14.30;99.30;;;;;;6275181;22;20012;-80
2022/11/01 03:13:51;;;;;;;17.40;6.45;;;14.30;99.30;;;;;;6248954;22;20099;-80
2022/11/01 03:16:36;;;;;;;14.30;6.30;;;14.30;99.40;;;;;;6249199;22;20039;-80
2022/11/01 03:19:07;;;;;;;12.05;6.10;;;14.30;99.20;;;;;;6247669;22;20019;-80
2022/11/01 03:21:40;;;;;;;10.80;5.82;;;14.40;99.40;;;;;;6249136;22;20383;-81
2022/11/01 03:24:21;;;;;;;12.45;6.28;;;14.40;99.40;;;;;;6276539;22;20023;-80
2022/11/01 03:26:57;;;;;;;11.23;6.13;;;14.40;99.40;;;;;;6275659;22;20094;-80
2022/11/01 03:29:26;;;;;;;13.95;6.00;;;14.40;99.50;;;;;;6248941;22;20012;-81
2022/11/01 03:31:53;;;;;;;14.38;5.75;;;14.40;99.50;;;;;;6275020;22;20023;-82
2022/11/01 03:34:20;;;;;;;10.93;5.70;;;14.40;99.60;;;;;;6249102;22;20476;-81
2022/11/01 03:36:51;;;;;;;15.13;6.10;;;14.40;99.60;;;;;;6249249;22;20019;-81
2022/11/01 03:39:23;;;;;;;13.45;5.75;;;14.50;99.70;;;;;;6248354;22;20022;-81
2022/11/01 03:41:54;;;;;;;14.93;6.00;;;14.50;99.70;;;;;;6248406;22;20024;-81
2022/11/01 03:44:20;;;;;;;11.02;5.32;;;14.50;99.70;;;;;;6276723;22;20348;-80
2022/11/01 03:46:46;;;;;;;13.60;5.72;;;14.50;99.70;;;;;;6247376;22;20016;-79
2022/11/01 03:49:16;;;;;;;10.55;4.95;;;14.60;99.80;;;;;;6248525;22;20082;-80
2022/11/01 03:51:42;;;;;;;12.68;5.55;;;14.60;99.90;;;;;;6248205;22;20012;-80
2022/11/01 03:54:09;;;;;;;13.23;5.18;;;14.60;99.90;;;;;;6248139;22;20066;-80
2022/11/01 03:56:39;;;;;;;11.32;5.45;;;14.60;99.90;;;;;;6274300;22;20023;-80
2022/11/01 03:59:06;;;;;;;13.57;5.22;;;14.70;99.80;;;;;;6248838;22;20024;-81
2022/11/01 04:01:31;;;;;;;13.18;5.82;;;14.70;99.90;;;;;;6275650;22;20083;-81
2022/11/01 04:03:57;;;;;;;17.13;6.03;;;14.70;99.90;;;;;;6248160;22;20101;-81
2022/11/01 04:06:22;;;;;;;13.20;5.18;;;14.70;99.90;;;;;;6275799;22;20043;-81
2022/11/01 04:08:48;;;;;;;12.60;5.53;;;14.80;99.90;;;;;;6248951;22;20098;-81
2022/11/01 04:11:14;;;;;;;11.57;5.53;;;14.80;99.90;;;;;;6250842;22;20440;-81
2022/11/01 04:13:39;;;;;;;15.98;5.80;;;14.80;99.90;;;;;;6250901;22;20085;-80
2022/11/01 04:21:33;;;;;;;11.57;5.45;;;14.90;99.90;;;;;;6277360;22;20034;-80
2022/11/01 04:23:58;;;;;;;14.18;5.13;;;14.90;99.90;;;;;;6277424;22;20099;-81
2022/11/01 04:26:24;;;;;;;14.15;5.13;;;15.00;99.90;;;;;;6250788;22;20098;-81
2022/11/01 04:28:56;;;;;;;13.02;5.20;;;15.10;99.90;;;;;;6276751;22;20130;-81
2022/11/01 04:31:26;;;;;;;12.40;4.63;;;15.10;99.90;;;;;;6250536;22;20444;-81
2022/11/01 04:33:52;;;;;;;11.07;4.88;;;15.10;99.90;;;;;;6250040;22;20102;-81
2022/11/01 04:36:18;;;;;;;14.18;4.97;;;15.20;99.90;;;;;;6276807;22;20035;-81
2022/11/01 04:38:43;;;;;;;12.30;4.75;;;15.20;99.90;;;;;;6277361;22;20015;-81
2022/11/01 04:41:09;;;;;;;11.27;4.80;;;15.20;99.90;;;;;;6278186;22;20034;-81
2022/11/01 04:43:34;;;;;;;14.70;5.10;;;15.20;99.90;;;;;;6277290;22;20064;-81
2022/11/01 04:46:00;;;;;;;16.08;4.90;;;15.20;99.90;;;;;;6276901;22;20016;-81
2022/11/01 04:48:26;;;;;;;10.98;4.25;;;15.30;99.90;;;;;;6277580;22;20353;-81
2022/11/01 04:50:52;;;;;;;12.52;4.55;;;15.30;99.90;;;;;;6249349;22;20023;-81
2022/11/01 04:53:18;;;;;;;12.00;4.95;;;15.30;99.90;;;;;;6277377;22;20022;-81
2022/11/01 04:55:43;;;;;;;13.05;4.90;;;15.30;99.90;;;;;;6250045;22;20016;-81
2022/11/01 04:58:09;;;;;;;13.23;5.13;;;15.30;99.90;;;;;;6249930;22;20074;-80
2022/11/01 05:00:36;;;;;;;12.88;4.88;;;15.30;99.90;;;;;;6277470;22;20007;-81
2022/11/01 05:03:02;;;;;;;13.23;4.60;;;15.40;99.90;;;;;;6276569;22;20020;-81
2022/11/01 05:05:28;;;;;;;13.75;4.47;;;15.40;99.90;;;;;;6247813;22;20023;-81
2022/11/01 05:08:02;;;;;;;11.30;4.60;;;15.40;99.90;;;;;;6248948;22;20027;-81
2022/11/01 05:10:28;;;;;;;14.05;4.78;;;15.40;99.90;;;;;;6248971;22;20016;-81
2022/11/01 05:12:54;;;;;;;10.35;4.60;;;15.50;99.90;;;;;;6249779;22;20510;-81
2022/11/01 05:15:19;;;;;;;13.45;4.55;;;15.50;99.90;;;;;;6277045;22;20016;-81
2022/11/01 05:17:45;;;;;;;14.52;4.50;;;15.50;99.90;;;;;;6244330;22;20074;-82
2022/11/01 05:20:11;;;;;;;14.10;4.95;;;15.50;99.90;;;;;;6247188;22;20019;-82
2022/11/01 05:22:36;;;;;;;9.18;4.15;;;15.40;99.90;;;;;;6249775;22;20458;-82
2022/11/01 05:25:02;;;;;;;16.17;4.70;;;15.50;99.90;;;;;;6275689;22;20591;-82
2022/11/01 05:27:28;;;;;;;8.80;4.00;;;15.50;99.90;;;;;;6276325;22;20015;-82
2022/11/01 05:29:53;;;;;;;14.27;4.60;;;15.50;99.90;;;;;;6250558;22;20022;-90
2022/11/01 05:32:19;;;;;;;10.88;4.10;;;15.50;99.90;;;;;;6251245;22;20091;-89
2022/11/01 05:34:45;;;;;;;12.35;4.20;;;15.50;99.90;;;;;;6251473;22;20444;-91
2022/11/01 05:37:11;;;;;;;11.95;4.45;;;15.50;99.90;;;;;;6279945;22;20018;-96
2022/11/01 05:39:37;;;;;;;9.75;3.15;;;15.50;99.90;;;;;;6254624;22;20012;-82
2022/11/01 05:42:02;;;;;;;8.45;2.88;;;15.50;99.70;;;;;;6248857;22;20070;-83
2022/11/01 05:44:28;;;;;;;10.38;2.78;;;15.50;99.40;;;;;;6249676;22;20003;-83
2022/11/01 05:46:54;;;;;;;9.23;2.88;;;15.50;99.00;;;;;;6246778;22;20395;-81
2022/11/01 05:49:21;;;;;;;8.55;1.90;;;15.50;98.70;;;;;;6275203;22;20019;-81
2022/11/01 05:51:46;;;;;;;8.15;2.45;;;15.50;98.20;;;;;;6247616;22;20336;-83
2022/11/01 05:54:12;;;;;;;6.10;1.88;;;15.40;97.90;;;;;;6248434;22;20016;-82
2022/11/01 05:56:38;;;;;;;7.22;2.10;;;15.40;97.60;;;;;;6274833;22;20431;-82
2022/11/01 05:59:03;;;;;;;9.68;1.63;;;15.40;97.50;;;;;;6246393;22;20030;-82
2022/11/01 06:01:29;;;;;;;4.57;1.30;;;15.40;97.30;;;;;;6275419;22;20336;-82
2022/11/01 06:04:00;;;;;;;5.40;1.30;;;15.30;96.60;;;;;;6248466;22;20027;-83
2022/11/01 06:06:29;;;;;;;8.32;1.40;;;15.30;96.60;;;;;;6248706;22;20015;-81
2022/11/01 06:08:56;;;;;;;6.57;1.35;;;15.20;96.40;;;;;;6247520;22;20050;-81
2022/11/01 06:11:23;;;;;;;6.32;1.13;;;15.20;96.30;;;;;;6248537;22;20043;-82
2022/11/01 06:13:55;;;;;;;8.82;1.40;;;15.10;96.00;;;;;;6274494;22;20019;-82
2022/11/01 06:16:21;;;;;;;4.55;1.00;;;15.10;95.90;;;;;;6273406;22;20011;-81
2022/11/01 06:18:47;;;;;;;4.80;1.08;;;15.10;95.90;;;;;;6246957;22;20142;-81
2022/11/01 06:21:13;;;;;;;6.38;1.00;;;15.00;95.40;;;;;;6275429;22;20023;-82
2022/11/01 06:23:39;;;;;;;5.28;1.30;;;15.00;95.40;;;;;;6274789;22;20018;-83
2022/11/01 06:26:05;;;;;;;6.10;1.15;;;15.00;95.50;;;;;;6247358;22;20024;-81
2022/11/01 06:28:32;;;;;;;6.38;1.05;;;14.90;95.20;;;;;;6247628;22;20019;-81
2022/11/01 06:31:01;;;;;;;7.38;1.13;;;14.80;94.70;;;;;;6276150;22;20008;-82
2022/11/01 06:33:28;;;;;;;5.47;1.20;;;14.80;94.80;;;;;;6276121;22;20015;-82
2022/11/01 06:35:54;;;;;;;5.47;0.93;;;14.80;94.10;;;;;;6247528;22;20019;-81
2022/11/01 06:38:19;;;;;;;7.20;0.98;;;14.70;93.90;;;;;;6248006;22;20020;-82
2022/11/01 06:40:54;;;;;;;5.72;1.13;;;14.70;94.00;;;;;;6248463;22;20011;-83
2022/11/01 06:43:20;;;;;;;8.70;1.10;;;14.60;93.70;;;;;;6275340;22;20016;-82
2022/11/01 06:45:46;;;;;;;7.03;1.10;;;14.60;93.70;;;;;;6275092;22;20007;-82
2022/11/01 06:48:11;;;;;;;5.60;1.00;;;14.60;93.60;;;;;;6275662;22;20011;-81
2022/11/01 06:50:37;;;;;;;7.68;1.20;;;14.50;93.60;;;;;;6246990;22;20011;-81
2022/11/01 06:53:02;;;;;;;7.68;1.30;;;14.50;93.50;;;;;;6275427;22;20026;-81
2022/11/01 06:55:29;;;;;;;6.53;1.10;;;14.40;93.40;;;;;;6248615;22;20012;-82
2022/11/01 06:57:57;;;;;;;6.65;1.17;;;14.40;93.60;;;;;;6247711;22;20024;-81
2022/11/01 07:00:23;;;;;;;7.38;1.10;;;14.40;93.30;;;;;;6248782;22;20094;-81
2022/11/01 07:02:57;;;;;;;7.45;1.15;;;14.30;93.70;;;;;;6247315;22;20019;-81
2022/11/01 07:05:23;;;;;;;6.32;1.00;;;14.30;93.60;;;;;;6248558;22;20015;-83
2022/11/01 07:07:48;;;;;;;7.10;1.05;;;14.30;93.90;;;;;;6248387;22;20107;-83
2022/11/01 07:10:14;;;;;;;8.63;1.38;;;14.30;93.80;;;;;;6275586;22;20069;-84
2022/11/01 07:12:40;;;;;;;6.47;1.20;;;14.20;93.50;;;;;;6248553;22;20464;-84
2022/11/01 07:15:06;;;;;;;5.90;1.30;;;14.20;94.00;;;;;;6275366;22;20012;-84
2022/11/01 07:17:31;;;;;;;10.40;1.77;;;14.20;93.70;;;;;;6247661;22;20016;-81
2022/11/01 07:19:57;;;;;;;9.40;1.70;;;14.20;93.60;;;;;;6248051;22;20027;-82
2022/11/01 07:22:23;;;;;;;10.05;1.48;;;14.10;93.30;;;;;;6248675;22;20091;-81
2022/11/01 07:24:48;;;;;;;12.57;1.75;;;14.10;93.30;;;;;;6274073;22;20055;-82
2022/11/01 07:27:14;;;;;;;10.48;1.85;;;14.10;93.10;;;;;;6247959;22;20026;-83
2022/11/01 07:29:40;;;;;;;11.93;1.75;;;14.10;93.20;;;;;;6274903;22;20020;-81
2022/11/01 07:32:06;;;;;;;13.85;2.22;;;14.10;93.00;;;;;;6247612;22;20023;-82
2022/11/01 07:34:31;;;;;;;10.02;1.60;;;14.10;93.30;;;;;;6276195;22;20370;-82
2022/11/01 07:36:57;;;;;;;10.45;1.70;;;14.10;93.30;;;;;;6275602;22;20074;-81
2022/11/01 07:39:23;;;;;;;11.60;1.58;;;14.10;93.20;;;;;;6247111;22;20020;-82
2022/11/01 07:41:50;;;;;;;7.90;1.45;;;14.10;93.20;;;;;;6272104;22;20007;-82
2022/11/01 07:44:15;;;;;;;8.43;1.52;;;14.10;93.30;;;;;;6249850;22;20011;-81
2022/11/01 07:46:41;;;;;;;12.90;1.48;;;14.10;93.50;;;;;;6250010;22;20018;-82
2022/11/01 07:49:06;;;;;;;9.90;1.52;;;14.10;93.50;;;;;;6277785;22;20071;-83
2022/11/01 07:51:32;;;;;;;14.90;1.85;;;14.10;93.60;;;;;;6250657;22;20007;-81
2022/11/01 07:53:58;;;;;;;8.40;1.70;;;14.10;93.70;;;;;;6247284;22;20452;-80
2022/11/01 07:56:23;;;;;;;8.82;1.42;;;14.20;93.90;;;;;;6250706;22;20016;-87
2022/11/01 07:58:52;;;;;;;7.93;1.52;;;14.20;94.00;;;;;;6278312;22;20027;-88
2022/11/01 08:01:17;;;;;;;11.57;2.08;;;14.20;94.50;;;;;;6250630;22;20141;-88
2022/11/01 08:03:43;;;;;;;9.80;1.40;;;14.30;94.40;;;;;;6277357;22;20444;-89
2022/11/01 08:06:08;;;;;;;9.00;1.48;;;14.30;94.40;;;;;;6250783;22;20019;-87
2022/11/01 08:08:35;;;;;;;11.07;1.50;;;14.30;94.30;;;;;;6251665;22;20019;-88
2022/11/01 08:11:01;;;;;;;12.68;2.17;;;14.30;94.10;;;;;;6251197;22;20011;-86
2022/11/01 08:13:27;;;;;;;11.52;1.70;;;14.30;94.00;;;;;;6250328;22;20094;-87
2022/11/01 08:15:53;;;;;;;14.68;1.88;;;14.30;93.90;;;;;;6251180;22;20015;-86
2022/11/01 08:18:22;;;;;;;12.38;1.80;;;14.30;93.80;;;;;;6250579;22;20015;-82
2022/11/01 08:20:48;;;;;;;14.27;1.98;;;14.40;93.80;;;;;;6276626;22;20004;-81
2022/11/01 08:23:13;;;;;;;20.63;2.80;;;14.40;93.60;;;;;;6250173;22;20451;-82
2022/11/01 08:25:39;;;;;;;14.57;2.13;;;14.40;93.10;;;;;;6275842;22;20083;-82
2022/11/01 08:28:11;;;;;;;17.20;2.58;;;14.40;92.90;;;;;;6248106;22;20023;-81
2022/11/01 08:30:39;;;;;;;19.00;2.50;;;14.30;92.80;;;;;;6250380;22;20514;-82
2022/11/01 08:33:05;;;;;;;12.50;2.22;;;14.30;92.80;;;;;;6249766;22;20094;-82
2022/11/01 08:35:32;;;;;;;20.95;3.10;;;14.30;92.90;;;;;;6248657;22;20427;-82
2022/11/01 08:38:02;;;;;;;20.23;2.90;;;14.30;92.50;;;;;;6246628;22;20475;-84
2022/11/01 08:40:28;;;;;;;19.92;3.00;;;14.30;92.30;;;;;;6249650;22;20012;-84
2022/11/01 08:42:54;;;;;;;23.63;3.50;;;14.30;92.30;;;;;;6276559;22;20012;-83
2022/11/01 08:45:20;;;;;;;18.90;2.90;;;14.30;92.10;;;;;;6276593;22;20024;-83
2022/11/01 08:47:45;;;;;;;14.45;2.33;;;14.30;92.20;;;;;;6249846;22;20069;-83
2022/11/01 08:50:14;;;;;;;24.52;3.00;;;14.30;92.30;;;;;;6247434;22;20134;-83
2022/11/01 08:52:40;;;;;;;18.60;3.13;;;14.30;92.20;;;;;;6248929;22;20030;-83
2022/11/01 08:55:07;;;;;;;18.30;2.90;;;14.30;92.00;;;;;;6248912;22;20098;-83
2022/11/01 08:57:33;;;;;;;18.05;3.08;;;14.30;92.20;;;;;;6247647;22;20016;-84
2022/11/01 08:59:58;;;;;;;24.88;3.53;;;14.40;92.40;;;;;;6277027;22;20012;-82
2022/11/01 09:02:24;;;;;;;15.05;2.83;;;14.40;92.30;;;;;;6248562;22;20556;-84
2022/11/01 09:04:50;;;;;;;16.40;2.88;;;14.40;92.20;;;;;;6248568;22;20012;-83
2022/11/01 09:07:15;;;;;;;17.88;3.00;;;14.50;92.10;;;;;;6249589;22;20018;-83
2022/11/01 09:09:41;;;;;;;19.05;3.50;;;14.50;92.20;;;;;;6248347;22;20023;-84
2022/11/01 09:12:07;;;;;;;13.15;2.38;;;14.60;92.30;;;;;;6249109;22;20043;-84
2022/11/01 09:14:32;;;;;;;17.85;2.80;;;14.60;92.20;;;;;;6247701;22;20456;-84
2022/11/01 09:16:58;;;;;;;22.50;3.00;;;14.60;92.40;;;;;;6274923;22;20436;-82
2022/11/01 09:19:24;;;;;;;16.30;2.45;;;14.60;92.20;;;;;;6249749;22;20087;-82
2022/11/01 09:21:50;;;;;;;14.70;2.78;;;14.60;92.30;;;;;;6276225;22;20512;-83
2022/11/01 09:24:16;;;;;;;20.38;3.38;;;14.60;92.50;;;;;;6275946;22;20035;-83
2022/11/01 09:26:42;;;;;;;14.48;2.75;;;14.60;92.40;;;;;;6248997;22;20015;-83
2022/11/01 09:29:09;;;;;;;19.20;3.17;;;14.70;92.20;;;;;;6249075;22;20016;-83
2022/11/01 09:31:35;;;;;;;22.55;3.10;;;14.70;92.10;;;;;;6248208;22;20027;-82
2022/11/01 09:34:01;;;;;;;22.02;2.78;;;14.70;92.10;;;;;;6248378;22;20015;-82
2022/11/01 09:36:27;;;;;;;17.15;2.65;;;14.70;92.10;;;;;;6249408;22;20007;-81
2022/11/01 09:38:54;;;;;;;16.83;2.83;;;14.80;92.20;;;;;;6248404;22;20016;-82
2022/11/01 09:41:26;;;;;;;24.10;2.80;;;14.80;92.10;;;;;;6276786;22;20061;-82
2022/11/01 09:43:54;;;;;;;18.88;3.22;;;14.80;92.30;;;;;;6249065;22;20024;-82
2022/11/01 09:46:25;;;;;;;20.05;2.92;;;14.80;92.20;;;;;;6275747;22;20023;-82
2022/11/01 09:48:51;;;;;;;21.40;3.03;;;14.80;92.10;;;;;;6275762;22;20016;-83
2022/11/01 09:51:22;;;;;;;14.88;3.03;;;14.90;92.10;;;;;;6275727;22;20083;-81
2022/11/01 09:53:51;;;;;;;21.58;3.40;;;14.90;92.20;;;;;;6247231;22;20027;-83
2022/11/01 09:56:25;;;;;;;22.40;3.03;;;14.90;92.20;;;;;;6275608;22;20016;-83
2022/11/01 09:59:28;;;;;;;22.20;3.90;;;15.00;92.30;;;;;;6246266;22;20073;-83
2022/11/01 10:02:29;;;;;;;16.23;2.90;;;15.00;92.10;;;;;;6248403;22;20062;-83
2022/11/01 10:05:32;;;;;;;15.73;2.55;;;15.00;92.20;;;;;;6273904;22;20023;-83
2022/11/01 10:08:22;;;;;;;16.58;2.83;;;15.10;92.40;;;;;;6247874;22;20081;-83
2022/11/01 10:11:01;;;;;;;18.77;3.10;;;15.10;92.40;;;;;;6275843;22;20012;-83
2022/11/01 10:13:41;;;;;;;21.25;3.08;;;15.20;92.50;;;;;;6248083;22;20042;-82
2022/11/01 10:16:28;;;;;;;17.98;2.90;;;15.10;92.80;;;;;;6247305;22;20057;-83
2022/11/01 10:19:25;;;;;;;14.77;3.15;;;15.20;92.60;;;;;;6275975;22;20047;-83
2022/11/01 10:22:02;;;;;;;22.77;3.53;;;15.20;92.50;;;;;;6235677;22;20015;-83
2022/11/01 10:24:44;;;;;;;17.85;2.80;;;15.30;92.30;;;;;;6248863;22;20344;-83
2022/11/01 10:27:27;;;;;;;16.90;3.22;;;15.30;92.40;;;;;;6248074;22;20055;-83
2022/11/01 10:30:05;;;;;;;21.83;3.45;;;15.30;92.50;;;;;;6247454;22;20020;-82
2022/11/01 10:32:43;;;;;;;17.65;3.13;;;15.30;92.30;;;;;;6275564;22;20051;-83
2022/11/01 10:35:17;;;;;;;16.90;3.03;;;15.30;92.30;;;;;;6247075;22;20027;-84
2022/11/01 10:37:56;;;;;;;17.25;2.83;;;15.40;92.30;;;;;;6275559;22;20049;-84
2022/11/01 10:40:32;;;;;;;18.65;2.95;;;15.40;92.50;;;;;;6275887;22;20011;-82
2022/11/01 10:42:59;;;;;;;21.42;2.90;;;15.40;92.40;;;;;;6274635;22;20379;-82
2022/11/01 10:45:25;;;;;;;20.02;3.00;;;15.40;92.50;;;;;;6248045;22;20019;-84
2022/11/01 10:47:55;;;;;;;21.23;3.33;;;15.40;92.40;;;;;;6247335;22;20009;-83
2022/11/01 10:50:24;;;;;;;19.55;2.88;;;15.40;92.50;;;;;;6276257;22;20011;-84
2022/11/01 10:52:58;;;;;;;17.40;3.30;;;15.40;92.40;;;;;;6248074;22;20012;-81
2022/11/01 10:55:45;;;;;;;15.80;2.83;;;15.40;92.40;;;;;;6274429;22;20448;-84
2022/11/01 10:58:33;;;;;;;17.52;3.20;;;15.40;92.40;;;;;;6248544;22;20070;-82
2022/11/01 11:01:01;;;;;;;18.08;2.78;;;15.40;92.40;;;;;;6247958;22;20022;-82
2022/11/01 11:03:32;;;;;;;17.42;2.92;;;15.40;92.50;;;;;;6275184;22;20020;-81
2022/11/01 11:06:06;;;;;;;22.60;3.47;;;15.40;92.40;;;;;;6248048;22;20463;-82
2022/11/01 11:08:32;;;;;;;20.88;3.33;;;15.40;92.40;;;;;;6248746;22;20346;-83
2022/11/01 11:11:03;;;;;;;17.45;3.00;;;15.40;92.40;;;;;;6247655;22;20007;-83
2022/11/01 11:13:30;;;;;;;18.98;2.53;;;15.40;92.70;;;;;;6248448;22;20026;-82
2022/11/01 11:16:05;;;;;;;18.23;3.20;;;15.40;92.80;;;;;;6247984;22;20879;-83
2022/11/01 11:18:38;;;;;;;16.60;2.92;;;15.40;92.90;;;;;;6249425;22;20106;-81
2022/11/01 11:21:10;;;;;;;23.55;2.88;;;15.40;92.70;;;;;;6250688;22;20015;-83
2022/11/01 11:23:41;;;;;;;16.90;2.80;;;15.40;92.80;;;;;;6249946;22;20070;-82
2022/11/01 11:26:16;;;;;;;19.23;2.92;;;15.40;92.80;;;;;;6277713;22;20091;-85
2022/11/01 11:28:46;;;;;;;16.65;2.55;;;15.40;92.60;;;;;;6250601;22;20016;-84
2022/11/01 11:31:21;;;;;;;12.95;2.75;;;15.40;92.80;;;;;;6249930;22;20023;-85
2022/11/01 11:34:25;;;;;;;18.15;3.20;;;15.40;92.80;;;;;;6250146;22;20011;-85
2022/11/01 11:36:53;;;;;;;14.95;2.50;;;15.50;92.60;;;;;;6250627;22;20019;-85
2022/11/01 11:39:36;;;;;;;14.18;2.40;;;15.50;92.80;;;;;;6278695;22;20327;-86
2022/11/01 11:42:15;;;;;;;14.55;2.78;;;15.50;92.70;;;;;;6244644;22;20015;-85
2022/11/01 11:44:46;;;;;;;13.38;2.50;;;15.50;92.70;;;;;;6251981;22;20016;-83
2022/11/01 11:47:20;;;;;;;15.73;2.60;;;15.50;92.80;;;;;;6251285;22;20011;-83
2022/11/01 11:49:47;;;;;;;17.83;2.67;;;15.60;92.80;;;;;;6250131;22;20329;-83
2022/11/01 11:52:16;;;;;;;20.52;3.08;;;15.60;92.60;;;;;;6249199;22;20047;-83
2022/11/01 11:54:42;;;;;;;15.35;2.60;;;15.70;92.60;;;;;;6250543;22;20047;-83
2022/11/01 11:57:21;;;;;;;15.20;2.50;;;15.70;92.40;;;;;;6250547;22;20439;-83
2022/11/01 11:59:58;;;;;;;19.17;2.72;;;15.80;92.40;;;;;;6249599;22;20094;-83
2022/11/01 12:02:34;;;;;;;20.85;2.50;;;15.80;92.30;;;;;;6249134;22;20016;-84
2022/11/01 12:05:07;;;;;;;15.82;2.60;;;15.90;92.30;;;;;;6249648;22;20020;-83
2022/11/01 12:07:48;;;;;;;14.30;2.72;;;15.90;92.30;;;;;;6249361;22;20007;-83
2022/11/01 12:10:39;;;;;;;13.05;2.33;;;15.90;92.10;;;;;;6250030;22;20016;-84
2022/11/01 12:13:23;;;;;;;15.65;2.50;;;16.00;92.00;;;;;;6248311;22;20026;-83
2022/11/01 12:16:06;;;;;;;16.92;2.42;;;16.00;92.00;;;;;;6249294;22;20054;-83
2022/11/01 12:18:31;;;;;;;18.05;2.50;;;16.00;92.10;;;;;;6277736;22;20019;-83
2022/11/01 12:20:57;;;;;;;19.33;2.80;;;16.00;92.20;;;;;;6249021;22;20035;-83
2022/11/01 12:23:34;;;;;;;11.60;2.25;;;16.10;92.20;;;;;;6250181;22;20012;-85
2022/11/01 12:26:04;;;;;;;15.40;2.42;;;16.10;92.30;;;;;;6276808;22;20096;-85
2022/11/01 12:28:35;;;;;;;13.95;2.60;;;16.10;92.20;;;;;;6248615;22;20090;-84
2022/11/01 12:31:10;;;;;;;10.70;2.03;;;16.20;92.10;;;;;;6277433;22;20012;-83
2022/11/01 12:33:55;;;;;;;12.43;2.33;;;16.20;92.00;;;;;;6249348;22;20016;-83
2022/11/01 12:36:39;;;;;;;17.27;2.50;;;16.20;91.70;;;;;;6249740;22;20020;-82
2022/11/01 12:39:22;;;;;;;14.30;2.60;;;16.20;91.60;;;;;;6275528;22;20606;-83
2022/11/01 12:41:58;;;;;;;14.93;2.42;;;16.20;91.70;;;;;;6274084;22;20335;-82
2022/11/01 12:44:46;;;;;;;15.23;2.40;;;16.30;91.80;;;;;;6276714;22;20008;-83
2022/11/01 12:47:28;;;;;;;13.00;2.55;;;16.30;91.70;;;;;;6249092;22;20020;-83
2022/11/01 12:50:00;;;;;;;15.35;2.55;;;16.30;91.70;;;;;;6249226;22;20012;-82
2022/11/01 12:52:48;;;;;;;14.70;2.58;;;16.30;91.80;;;;;;6249513;22;20077;-83
2022/11/01 12:55:36;;;;;;;12.45;2.10;;;16.40;91.90;;;;;;6275930;22;20079;-83
2022/11/01 12:58:05;;;;;;;14.57;2.40;;;16.40;91.80;;;;;;6275224;22;20018;-83